createdAt,value
2023-10-02T00:02:40.894Z,102201.06
2023-10-02T00:05:09.220Z,102191.09
2023-10-02T00:07:37.825Z,102211.50
2023-10-02T00:10:06.628Z,102186.38
2023-10-02T00:12:36.581Z,102197.50
2023-10-02T00:15:15.902Z,102196.41
2023-10-02T00:17:46.749Z,102210.31
2023-10-02T00:20:22.958Z,102198.97
2023-10-02T00:22:51.998Z,102204.09
2023-10-02T00:25:23.608Z,102211.75
2023-10-02T00:27:52.630Z,102210.78
2023-10-02T00:30:23.277Z,102202.97
2023-10-02T00:32:52.389Z,102211.22
2023-10-02T00:35:20.198Z,102194.56
2023-10-02T00:37:55.071Z,102216.47
2023-10-02T00:40:32.449Z,102201.81
2023-10-02T00:43:01.424Z,102185.97
2023-10-02T00:45:43.830Z,102159.31
2023-10-02T00:48:26.877Z,102185.34
2023-10-02T00:51:07.484Z,102192.19
2023-10-02T00:53:41.734Z,102165.25
2023-10-02T00:56:22.932Z,102157.03
2023-10-02T00:59:03.413Z,102201.41
2023-10-02T01:01:38.320Z,102191.03
2023-10-02T01:04:12.756Z,102159.78
2023-10-02T01:07:02.001Z,102184.06
2023-10-02T01:09:35.624Z,102181.28
2023-10-02T01:12:04.172Z,102165.88
2023-10-02T01:14:41.930Z,102138.81
2023-10-02T01:17:10.451Z,102156.81
2023-10-02T01:19:57.799Z,102178.94
2023-10-02T01:22:28.655Z,102190.72
2023-10-02T01:25:17.267Z,102183.31
2023-10-02T01:27:49.854Z,102163.03
2023-10-02T01:30:19.719Z,102166.97
2023-10-02T01:33:13.798Z,102145.34
2023-10-02T01:35:48.878Z,102153.72
2023-10-02T01:38:15.867Z,102184.63
2023-10-02T01:40:49.505Z,102160.22
2023-10-02T01:43:20.416Z,102151.00
2023-10-02T01:45:47.403Z,102150.47
2023-10-02T01:48:17.159Z,102179.69
2023-10-02T01:50:44.912Z,102155.50
2023-10-02T01:53:30.384Z,102177.81
2023-10-02T01:56:01.804Z,102174.03
2023-10-02T01:58:29.306Z,102168.69
2023-10-02T02:00:56.080Z,102158.38
2023-10-02T02:03:23.596Z,102151.41
2023-10-02T02:05:50.781Z,102138.13
2023-10-02T02:08:23.549Z,102149.75
2023-10-02T02:10:55.795Z,102161.72
2023-10-02T02:13:23.698Z,102131.06
2023-10-02T02:16:09.015Z,102143.47
2023-10-02T02:18:35.767Z,102159.56
2023-10-02T02:21:04.200Z,102154.75
2023-10-02T02:23:32.864Z,102153.16
2023-10-02T02:26:00.093Z,102150.28
2023-10-02T02:28:26.757Z,102154.03
2023-10-02T02:30:53.561Z,102149.97
2023-10-02T02:33:35.895Z,102158.75
2023-10-02T02:36:07.124Z,102149.66
2023-10-02T02:38:36.906Z,102148.91
2023-10-02T02:41:08.038Z,102152.97
2023-10-02T02:43:38.429Z,102155.75
2023-10-02T02:46:08.386Z,102129.94
2023-10-02T02:48:45.429Z,102122.78
2023-10-02T02:51:23.121Z,102132.84
2023-10-02T02:53:52.473Z,102146.09
2023-10-02T02:56:25.380Z,102143.88
2023-10-02T02:58:57.279Z,102140.00
2023-10-02T03:01:24.542Z,102146.75
2023-10-02T03:04:12.520Z,102136.06
2023-10-02T03:06:39.895Z,102143.31
2023-10-02T03:09:07.457Z,102133.06
2023-10-02T03:11:34.098Z,102147.41
2023-10-02T03:14:18.204Z,102156.84
2023-10-02T03:16:48.310Z,102151.19
2023-10-02T03:19:17.374Z,102154.34
2023-10-02T03:21:44.308Z,102134.56
2023-10-02T03:24:14.304Z,102112.72
2023-10-02T03:26:44.691Z,102093.47
2023-10-02T03:29:23.293Z,102106.53
2023-10-02T03:31:52.010Z,102123.00
2023-10-02T03:34:29.013Z,102140.47
2023-10-02T03:37:15.335Z,102139.16
2023-10-02T03:40:02.836Z,102145.59
2023-10-02T03:42:37.501Z,102120.13
2023-10-02T03:45:06.488Z,102144.31
2023-10-02T03:47:37.111Z,102134.66
2023-10-02T03:50:08.276Z,102146.69
2023-10-02T03:52:35.470Z,102129.84
2023-10-02T03:55:21.322Z,102115.53
2023-10-02T03:57:52.277Z,102139.69
2023-10-02T04:00:27.574Z,102130.50
2023-10-02T04:02:59.025Z,102101.94
2023-10-02T04:05:43.776Z,102133.59
2023-10-02T04:08:21.542Z,102102.69
2023-10-02T04:10:56.813Z,102106.63
2023-10-02T04:13:26.299Z,102120.22
2023-10-02T04:15:55.263Z,102112.94
2023-10-02T04:18:43.641Z,102092.41
2023-10-02T04:21:13.732Z,102111.56
2023-10-02T04:23:43.962Z,102091.56
2023-10-02T04:26:20.838Z,102102.47
2023-10-02T04:28:57.144Z,102112.22
2023-10-02T04:31:29.920Z,102097.56
2023-10-02T04:34:17.237Z,102075.19
2023-10-02T04:36:45.027Z,102075.63
2023-10-02T04:39:31.151Z,102104.41
2023-10-02T04:42:20.883Z,102102.47
2023-10-02T04:44:58.036Z,102109.34
2023-10-02T04:47:31.914Z,102106.09
2023-10-02T04:50:07.527Z,102113.06
2023-10-02T04:52:56.593Z,102106.44
2023-10-02T04:55:25.766Z,102119.28
2023-10-02T04:57:56.044Z,102113.28
2023-10-02T05:00:37.676Z,102113.28
2023-10-02T05:03:32.217Z,102126.75
2023-10-02T05:06:00.059Z,102111.88
2023-10-02T05:08:36.541Z,102110.50
2023-10-02T05:11:08.909Z,102107.19
2023-10-02T05:13:54.580Z,102109.00
2023-10-02T05:16:31.109Z,102115.22
2023-10-02T05:18:58.353Z,102109.75
2023-10-02T05:21:37.420Z,102117.25
2023-10-02T05:24:05.494Z,102119.69
2023-10-02T05:26:37.293Z,102128.03
2023-10-02T05:29:10.972Z,102128.47
2023-10-02T05:31:42.511Z,102137.56
2023-10-02T05:34:23.918Z,102116.38
2023-10-02T05:37:08.094Z,102125.03
2023-10-02T05:39:41.521Z,102128.16
2023-10-02T05:42:16.128Z,102141.72
2023-10-02T05:44:46.822Z,102141.63
2023-10-02T05:47:18.100Z,102127.81
2023-10-02T05:49:54.824Z,102133.69
2023-10-02T05:52:25.086Z,102130.06
2023-10-02T05:54:55.607Z,102144.19
2023-10-02T05:57:33.000Z,102133.91
2023-10-02T06:00:01.612Z,102144.94
2023-10-02T06:02:29.124Z,102126.00
2023-10-02T06:05:08.709Z,102138.28
2023-10-02T06:07:42.254Z,102141.06
2023-10-02T06:10:10.881Z,102153.69
2023-10-02T06:12:43.815Z,102153.69
2023-10-02T06:15:31.628Z,102155.94
2023-10-02T06:18:00.231Z,102163.75
2023-10-02T06:20:26.938Z,102132.50
2023-10-02T06:23:06.919Z,102171.78
2023-10-02T06:25:33.838Z,102174.16
2023-10-02T06:28:20.710Z,102146.44
2023-10-02T06:30:51.294Z,102157.66
2023-10-02T06:33:19.158Z,102139.16
2023-10-02T06:35:58.017Z,102181.22
2023-10-02T06:38:25.340Z,102194.69
2023-10-02T06:40:58.487Z,102191.59
2023-10-02T06:43:32.540Z,102181.44
2023-10-02T06:46:07.896Z,102193.84
2023-10-02T06:48:35.671Z,102198.25
2023-10-02T06:51:04.461Z,102190.22
2023-10-02T06:53:32.018Z,102201.66
2023-10-02T06:56:06.420Z,102204.59
2023-10-02T06:58:48.045Z,102189.34
2023-10-02T07:01:15.422Z,102208.78
2023-10-02T07:03:52.076Z,102193.88
2023-10-02T07:06:25.478Z,102202.34
2023-10-02T07:09:11.659Z,102204.69
2023-10-02T07:11:40.566Z,102203.75
2023-10-02T07:14:07.604Z,102197.44
2023-10-02T07:16:35.314Z,102178.47
2023-10-02T07:19:03.052Z,102167.47
2023-10-02T07:21:32.246Z,102175.38
2023-10-02T07:24:04.060Z,102160.38
2023-10-02T07:26:50.677Z,102161.97
2023-10-02T07:29:18.944Z,102189.19
2023-10-02T07:31:47.495Z,102199.78
2023-10-02T07:34:17.485Z,102191.41
2023-10-02T07:36:47.248Z,102181.78
2023-10-02T07:39:34.479Z,102165.81
2023-10-02T07:42:02.107Z,102197.28
2023-10-02T07:44:39.044Z,102179.72
2023-10-02T07:47:20.679Z,102194.69
2023-10-02T07:49:56.682Z,102198.72
2023-10-02T07:52:36.844Z,102193.03
2023-10-02T07:55:04.327Z,102198.69
2023-10-02T07:57:34.166Z,102193.22
2023-10-02T08:00:07.496Z,102187.28
2023-10-02T08:02:37.126Z,102186.06
2023-10-02T08:05:04.649Z,102161.03
2023-10-02T08:07:44.419Z,102179.75
2023-10-02T08:10:16.176Z,102159.63
2023-10-02T08:12:57.420Z,102188.91
2023-10-02T08:15:27.788Z,102200.03
2023-10-02T08:17:55.051Z,102183.09
2023-10-02T08:20:26.099Z,102197.28
2023-10-02T08:22:53.934Z,102210.09
2023-10-02T08:25:25.028Z,102215.25
2023-10-02T08:27:59.070Z,102212.19
2023-10-02T08:30:32.811Z,102216.38
2023-10-02T08:33:20.559Z,102212.34
2023-10-02T08:36:02.610Z,102217.91
2023-10-02T08:38:29.426Z,102208.38
2023-10-02T08:41:04.263Z,102201.28
2023-10-02T08:43:43.476Z,102206.53
2023-10-02T08:46:22.696Z,102213.63
2023-10-02T08:48:56.383Z,102206.66
2023-10-02T08:51:53.257Z,102216.81
2023-10-02T08:54:20.376Z,102210.19
2023-10-02T08:57:02.591Z,102207.41
2023-10-02T08:59:29.757Z,102199.47
2023-10-02T09:02:16.947Z,102194.34
2023-10-02T09:04:57.213Z,102197.28
2023-10-02T09:07:25.651Z,102196.44
2023-10-02T09:10:27.693Z,102201.63
2023-10-02T09:13:15.267Z,102189.28
2023-10-02T09:15:46.931Z,102186.97
2023-10-02T09:18:35.825Z,102178.06
2023-10-02T09:21:15.372Z,102201.13
2023-10-02T09:23:52.488Z,102206.75
2023-10-02T09:26:26.881Z,102178.19
2023-10-02T09:29:02.924Z,102178.63
2023-10-02T09:31:32.578Z,102177.03
2023-10-02T09:34:21.256Z,102183.22
2023-10-02T09:37:22.874Z,102180.03
2023-10-02T09:39:51.826Z,102192.13
2023-10-02T09:42:21.112Z,102185.16
2023-10-02T09:44:50.673Z,102160.69
2023-10-02T09:47:31.947Z,102176.31
2023-10-02T09:50:13.930Z,102162.19
2023-10-02T09:53:09.871Z,102152.19
2023-10-02T09:55:52.005Z,102175.81
2023-10-02T09:58:35.304Z,102167.25
2023-10-02T10:01:28.114Z,102173.19
2023-10-02T10:03:58.253Z,102177.56
2023-10-02T10:06:42.983Z,102153.03
2023-10-02T10:09:28.505Z,102148.13
2023-10-02T10:12:14.172Z,102147.78
2023-10-02T10:14:43.680Z,102141.53
2023-10-02T10:17:23.241Z,102167.91
2023-10-02T10:19:50.162Z,102166.06
2023-10-02T10:22:52.084Z,102156.44
2023-10-02T10:25:21.883Z,102158.88
2023-10-02T10:28:17.689Z,102159.53
2023-10-02T10:30:52.166Z,102158.50
2023-10-02T10:33:20.985Z,102154.75
2023-10-02T10:35:57.255Z,102160.41
2023-10-02T10:38:32.739Z,102154.44
2023-10-02T10:41:16.400Z,102144.06
2023-10-02T10:43:53.076Z,102136.56
2023-10-02T10:46:21.581Z,102148.00
2023-10-02T10:49:25.814Z,102155.09
2023-10-02T10:51:54.108Z,102144.13
2023-10-02T10:54:40.053Z,102150.09
2023-10-02T10:57:24.388Z,102153.72
2023-10-02T11:00:25.897Z,102155.75
2023-10-02T11:03:12.941Z,102143.88
2023-10-02T11:05:40.022Z,102149.84
2023-10-02T11:08:26.527Z,102143.78
2023-10-02T11:11:20.340Z,102160.22
2023-10-02T11:13:53.789Z,102163.00
2023-10-02T11:16:38.013Z,102163.72
2023-10-02T11:19:23.382Z,102157.34
2023-10-02T11:22:16.260Z,102146.72
2023-10-02T11:25:20.024Z,102121.00
2023-10-02T11:27:59.008Z,102154.16
2023-10-02T11:30:35.129Z,102146.44
2023-10-02T11:33:06.490Z,102130.34
2023-10-02T11:35:41.034Z,102142.81
2023-10-02T11:38:09.064Z,102134.09
2023-10-02T11:40:36.387Z,102121.78
2023-10-02T11:43:03.479Z,102131.91
2023-10-02T11:45:30.991Z,102124.09
2023-10-02T11:47:57.996Z,102118.47
2023-10-02T11:50:24.820Z,102109.09
2023-10-02T11:52:52.840Z,102118.41
2023-10-02T11:55:19.679Z,102123.03
2023-10-02T11:57:52.732Z,102105.59
2023-10-02T12:00:22.392Z,102105.78
2023-10-02T12:02:50.766Z,102105.66
2023-10-02T12:05:18.191Z,102090.19
2023-10-02T12:07:45.555Z,102097.88
2023-10-02T12:10:16.905Z,102099.88
2023-10-02T12:12:47.541Z,102090.38
2023-10-02T12:15:17.880Z,102088.81
2023-10-02T12:17:45.703Z,102080.44
2023-10-02T12:20:14.833Z,102086.59
2023-10-02T12:22:45.709Z,102078.34
2023-10-02T12:25:12.521Z,102068.94
2023-10-02T12:27:42.451Z,102068.81
2023-10-02T12:30:12.680Z,102071.91
2023-10-02T12:32:40.537Z,102072.19
2023-10-02T12:35:07.976Z,102051.59
2023-10-02T12:37:35.015Z,102068.88
2023-10-02T12:40:01.931Z,102059.34
2023-10-02T12:42:30.485Z,102043.69
2023-10-02T12:44:58.036Z,102052.69
2023-10-02T12:47:25.125Z,102052.94
2023-10-02T12:49:55.668Z,102034.75
2023-10-02T12:52:24.431Z,102045.84
2023-10-02T12:54:51.203Z,102042.13
2023-10-02T12:57:17.806Z,102044.53
2023-10-02T12:59:45.094Z,102043.38
2023-10-02T13:02:11.866Z,102039.63
2023-10-02T13:04:39.267Z,102036.09
2023-10-02T13:07:06.943Z,102027.59
2023-10-02T13:09:34.539Z,102016.94
2023-10-02T13:12:01.780Z,102017.63
2023-10-02T13:14:28.782Z,102028.69
2023-10-02T13:16:56.262Z,102022.28
2023-10-02T13:19:23.167Z,102012.47
2023-10-02T13:21:53.918Z,102009.63
2023-10-02T13:24:24.875Z,101997.97
2023-10-02T13:26:54.546Z,102003.91
2023-10-02T13:29:22.380Z,102004.75
2023-10-02T13:31:49.336Z,101992.63
2023-10-02T13:34:16.224Z,101999.72
2023-10-02T13:36:42.893Z,101999.31
2023-10-02T13:39:18.004Z,101988.81
2023-10-02T13:41:46.696Z,102005.13
2023-10-02T13:44:13.583Z,101991.53
2023-10-02T13:46:40.921Z,101983.38
2023-10-02T13:49:08.816Z,101988.72
2023-10-02T13:51:35.480Z,101968.00
2023-10-02T13:54:02.772Z,101966.84
2023-10-02T13:56:34.146Z,101976.59
2023-10-02T13:59:02.057Z,101967.41
2023-10-02T14:01:31.977Z,101963.16
2023-10-02T14:03:58.936Z,101956.56
2023-10-02T14:06:29.307Z,101972.84
2023-10-02T14:08:57.158Z,101960.66
2023-10-02T14:11:26.025Z,101960.75
2023-10-02T14:13:58.532Z,101957.13
2023-10-02T14:16:27.262Z,101946.09
2023-10-02T14:18:55.587Z,101954.59
2023-10-02T14:21:24.970Z,101950.72
2023-10-02T14:23:56.457Z,101942.94
2023-10-02T14:26:24.757Z,101933.53
2023-10-02T14:28:56.799Z,101936.06
2023-10-02T14:31:37.497Z,101933.28
2023-10-02T14:34:08.185Z,101938.84
2023-10-02T14:36:35.254Z,101930.72
2023-10-02T14:39:05.317Z,101896.16
2023-10-02T14:41:32.499Z,101920.84
2023-10-02T14:43:59.454Z,101913.34
2023-10-02T14:46:26.556Z,101915.44
2023-10-02T14:48:54.772Z,101909.19
2023-10-02T14:51:21.648Z,101908.88
2023-10-02T14:53:48.252Z,101899.09
2023-10-02T14:56:14.943Z,101906.03
2023-10-02T14:58:51.704Z,101901.47
2023-10-02T15:01:20.506Z,101895.69
2023-10-02T15:03:49.079Z,101888.34
2023-10-02T15:06:15.960Z,101892.44
2023-10-02T15:08:43.081Z,101891.91
2023-10-02T15:11:15.687Z,101886.94
2023-10-02T15:13:43.658Z,101881.41
2023-10-02T15:16:15.893Z,101878.69
2023-10-02T15:18:43.457Z,101857.09
2023-10-02T15:21:11.159Z,101862.59
2023-10-02T15:23:38.816Z,101863.28
2023-10-02T15:26:05.823Z,101839.44
2023-10-02T15:28:33.352Z,101853.41
2023-10-02T15:31:00.388Z,101865.44
2023-10-02T15:33:27.300Z,101857.19
2023-10-02T15:35:54.361Z,101840.44
2023-10-02T15:38:21.048Z,101844.22
2023-10-02T15:40:48.251Z,101834.56
2023-10-02T15:45:42.509Z,101830.69
2023-10-02T15:48:09.132Z,101834.78
2023-10-02T15:50:35.787Z,101825.31
2023-10-02T15:53:02.812Z,101830.31
2023-10-02T15:55:30.468Z,101820.28
2023-10-02T15:57:57.809Z,101810.03
2023-10-02T16:00:25.911Z,101817.75
2023-10-02T16:03:03.412Z,101812.78
2023-10-02T16:05:32.225Z,101809.66
2023-10-02T16:08:01.132Z,101805.03
2023-10-02T16:10:28.891Z,101811.28
2023-10-02T16:12:55.492Z,101808.63
2023-10-02T16:15:25.969Z,101800.00
2023-10-02T16:17:59.970Z,101811.94
2023-10-02T16:20:27.833Z,101801.66
2023-10-02T16:22:58.295Z,101813.75
2023-10-02T16:25:25.156Z,101804.03
2023-10-02T16:27:53.594Z,101813.53
2023-10-02T16:30:24.466Z,101813.59
2023-10-02T16:32:56.442Z,101818.41
2023-10-02T16:35:30.867Z,101820.13
2023-10-02T16:38:04.591Z,101814.47
2023-10-02T16:40:33.940Z,101822.84
2023-10-02T16:43:10.968Z,101821.91
2023-10-02T16:45:40.176Z,101813.69
2023-10-02T16:48:07.056Z,101814.84
2023-10-02T16:50:34.127Z,101805.78
2023-10-02T16:53:01.179Z,101805.78
2023-10-02T16:55:28.765Z,101809.03
2023-10-02T16:57:59.868Z,101802.53
2023-10-02T17:00:27.953Z,101803.81
2023-10-02T17:02:59.328Z,101795.59
2023-10-02T17:05:26.543Z,101786.97
2023-10-02T17:07:55.172Z,101797.19
2023-10-02T17:10:23.123Z,101805.66
2023-10-02T17:12:51.938Z,101800.97
2023-10-02T17:15:23.405Z,101815.28
2023-10-02T17:17:51.466Z,101818.69
2023-10-02T17:20:23.169Z,101818.69
2023-10-02T17:22:52.684Z,101803.91
2023-10-02T17:25:26.492Z,101813.69
2023-10-02T17:27:55.742Z,101791.56
2023-10-02T17:30:23.538Z,101796.25
2023-10-02T17:32:50.664Z,101835.63
2023-10-02T17:35:22.052Z,101835.19
2023-10-02T17:37:49.690Z,101822.16
2023-10-02T17:40:16.933Z,101848.09
2023-10-02T17:42:44.794Z,101847.34
2023-10-02T17:45:12.832Z,101863.06
2023-10-02T17:47:42.664Z,101858.97
2023-10-02T17:50:12.040Z,101873.84
2023-10-02T17:52:40.734Z,101863.50
2023-10-02T17:55:07.803Z,101856.97
2023-10-02T17:57:35.551Z,101849.59
2023-10-02T18:00:03.820Z,101857.41
2023-10-02T18:02:32.094Z,101837.53
2023-10-02T18:04:59.672Z,101847.47
2023-10-02T18:07:29.879Z,101850.84
2023-10-02T18:09:59.510Z,101827.25
2023-10-02T18:12:26.446Z,101829.75
2023-10-02T18:14:53.412Z,101797.00
2023-10-02T18:17:20.507Z,101806.25
2023-10-02T18:19:48.341Z,101820.41
2023-10-02T18:22:16.177Z,101824.25
2023-10-02T18:24:43.776Z,101816.72
2023-10-02T18:27:11.508Z,101828.00
2023-10-02T18:29:38.677Z,101817.91
2023-10-02T18:32:05.607Z,101822.41
2023-10-02T18:34:43.624Z,101798.59
2023-10-02T18:37:12.481Z,101804.41
2023-10-02T18:39:39.635Z,101780.06
2023-10-02T18:42:06.591Z,101807.56
2023-10-02T18:44:38.104Z,101816.59
2023-10-02T18:47:05.688Z,101801.84
2023-10-02T18:49:38.359Z,101796.22
2023-10-02T18:52:05.344Z,101779.25
2023-10-02T18:54:32.743Z,101751.28
2023-10-02T18:57:00.371Z,101778.53
2023-10-02T18:59:27.475Z,101775.78
2023-10-02T19:01:54.311Z,101768.38
2023-10-02T19:04:24.028Z,101739.75
2023-10-02T19:06:51.014Z,101763.94
2023-10-02T19:09:21.643Z,101737.66
2023-10-02T19:11:48.582Z,101746.50
2023-10-02T19:14:16.689Z,101732.41
2023-10-02T19:16:43.678Z,101737.47
2023-10-02T19:19:10.506Z,101744.81
2023-10-02T19:21:37.159Z,101731.44
2023-10-02T19:24:05.284Z,101737.03
2023-10-02T19:26:33.753Z,101726.13
2023-10-02T19:29:03.140Z,101727.03
2023-10-02T19:31:31.243Z,101726.47
2023-10-02T19:33:58.308Z,101706.56
2023-10-02T19:36:25.161Z,101704.06
2023-10-02T19:38:52.294Z,101685.63
2023-10-02T19:41:20.987Z,101657.78
2023-10-02T19:43:52.397Z,101681.28
2023-10-02T19:46:19.386Z,101695.13
2023-10-02T19:48:47.046Z,101671.97
2023-10-02T19:51:15.926Z,101639.06
2023-10-02T19:53:43.663Z,101646.41
2023-10-02T19:56:13.150Z,101668.72
2023-10-02T19:58:39.964Z,101674.06
2023-10-02T20:01:06.671Z,101657.66
2023-10-02T20:03:36.074Z,101638.22
2023-10-02T20:06:11.860Z,101647.06
2023-10-02T20:08:39.933Z,101625.66
2023-10-02T20:11:06.996Z,101629.06
2023-10-02T20:13:34.888Z,101612.97
2023-10-02T20:16:01.820Z,101604.06
2023-10-02T20:18:30.315Z,101608.06
2023-10-02T20:20:58.358Z,101589.28
2023-10-02T20:23:37.177Z,101604.56
2023-10-02T20:26:12.257Z,101583.59
2023-10-02T20:28:39.517Z,101593.53
2023-10-02T20:31:11.218Z,101584.63
2023-10-02T20:33:38.040Z,101577.56
2023-10-02T20:36:08.356Z,101571.09
2023-10-02T20:38:35.313Z,101563.88
2023-10-02T20:41:02.155Z,101565.72
2023-10-02T20:43:33.029Z,101533.16
2023-10-02T20:45:59.701Z,101524.25
2023-10-02T20:48:26.569Z,101549.63
2023-10-02T20:50:53.697Z,101509.03
2023-10-02T20:53:20.458Z,101528.75
2023-10-02T20:55:53.224Z,101530.75
2023-10-02T20:58:20.021Z,101524.25
2023-10-02T21:00:47.650Z,101489.63
2023-10-02T21:03:15.279Z,101487.81
2023-10-02T21:05:42.262Z,101500.19
2023-10-02T21:08:10.230Z,101500.88
2023-10-02T21:10:36.862Z,101500.03
2023-10-02T21:13:04.266Z,101475.97
2023-10-02T21:15:30.849Z,101498.78
2023-10-02T21:17:57.501Z,101492.72
2023-10-02T21:20:24.338Z,101484.94
2023-10-02T21:22:50.969Z,101480.72
2023-10-02T21:25:19.269Z,101456.13
2023-10-02T21:27:46.519Z,101466.72
2023-10-02T21:30:13.812Z,101465.31
2023-10-02T21:32:42.969Z,101466.03
2023-10-02T21:35:10.703Z,101463.63
2023-10-02T21:37:38.126Z,101437.75
2023-10-02T21:40:08.752Z,101428.28
2023-10-02T21:42:35.902Z,101445.38
2023-10-02T21:45:05.373Z,101440.31
2023-10-02T21:47:32.693Z,101430.25
2023-10-02T21:50:00.052Z,101436.78
2023-10-02T21:52:26.882Z,101418.09
2023-10-02T21:54:55.701Z,101423.34
2023-10-02T21:57:24.027Z,101425.19
2023-10-02T21:59:52.032Z,101403.84
2023-10-02T22:02:20.049Z,101406.97
2023-10-02T22:04:47.935Z,101386.63
2023-10-02T22:07:16.153Z,101389.75
2023-10-02T22:09:43.107Z,101381.13
2023-10-02T22:12:09.768Z,101386.91
2023-10-02T22:14:36.679Z,101396.25
2023-10-02T22:17:08.675Z,101387.63
2023-10-02T22:19:36.549Z,101361.47
2023-10-02T22:22:06.927Z,101386.22
2023-10-02T22:24:33.800Z,101386.91
2023-10-02T22:27:00.489Z,101360.50
2023-10-02T22:29:27.136Z,101354.41
2023-10-02T22:31:53.812Z,101347.63
2023-10-02T22:34:30.571Z,101338.88
2023-10-02T22:37:07.066Z,101330.53
2023-10-02T22:39:35.174Z,101333.22
2023-10-02T22:42:02.258Z,101326.31
2023-10-02T22:44:29.780Z,101319.81
2023-10-02T22:46:56.963Z,101314.72
2023-10-02T22:49:23.777Z,101328.84
2023-10-02T22:51:50.663Z,101310.34
2023-10-02T22:54:17.377Z,101328.13
2023-10-02T22:56:45.774Z,101309.78
2023-10-02T22:59:13.682Z,101302.16
2023-10-02T23:01:42.894Z,101312.31
2023-10-02T23:04:11.530Z,101284.06
2023-10-02T23:06:38.450Z,101274.03
2023-10-02T23:09:05.540Z,101293.81
2023-10-02T23:11:32.540Z,101266.69
2023-10-02T23:14:01.065Z,101260.63
2023-10-02T23:16:28.022Z,101272.63
2023-10-02T23:18:54.915Z,101255.97
2023-10-02T23:21:22.231Z,101255.81
2023-10-02T23:23:50.382Z,101275.31
2023-10-02T23:26:18.471Z,101261.47
2023-10-02T23:28:45.571Z,101249.59
2023-10-02T23:31:12.876Z,101249.47
2023-10-02T23:33:40.722Z,101245.81
2023-10-02T23:36:11.755Z,101230.09
2023-10-02T23:38:43.440Z,101208.22
2023-10-02T23:41:11.369Z,101207.22
2023-10-02T23:43:38.408Z,101203.28
2023-10-02T23:46:05.297Z,101212.88
2023-10-02T23:48:36.800Z,101213.16
2023-10-02T23:51:05.391Z,101202.28
2023-10-02T23:53:39.387Z,101202.56
2023-10-02T23:56:14.392Z,101207.94
2023-10-02T23:58:43.011Z,101197.63
